• Join FlightAware (Why Join?)
  • Login
  • US Flag 
02:24AM EDT


 

Airport Tracker/Info


-or-


 

Live Flight TrackerFlight Track Log ✈ SWA16 ✈ 07-May-2013 ✈ KLAS - KDEN

Flight Track Log - Related Links

Times and Time Zones

All times are in EDT time to prevent confusion due to time zone crossing. See the SWA16 flight status page for this flight to view local times or setup timezone preferences in your user account.

Time Position Orientation Groundspeed Altitude Reporting Facility
EDT Latitude Longitude Course Direction KTS MPH feet Rate Location/Type
05:00PM 36.0756 -115.1658 268° West 152 175 3,100  Level Los Angeles Center
05:01PM 36.0742 -115.2194 268° West 200 230 4,600 1,980 Climbing Los Angeles Center
05:02PM 36.1178 -115.2608 323° Northwest 247 284 6,700 2,100 Climbing Los Angeles Center
05:03PM 36.1425 -115.1861 68° East 276 318 8,900 2,340 Climbing Los Angeles Center
05:04PM 36.1394 -115.0675 92° East 302 348 11,700 2,820 Climbing Los Angeles Center
05:05PM 36.1403 -114.9519 89° East 332 382 15,000 3,000 Climbing Los Angeles Center
05:06PM 36.1481 -114.8328 85° East 346 398 17,900 2,700 Climbing Los Angeles Center
05:07PM 36.1600 -114.7042 83° East 371 427 20,700 2,460 Climbing Los Angeles Center
05:08PM 36.1686 -114.5700 85° East 388 447 23,100 2,280 Climbing Los Angeles Center
05:09PM 36.1800 -114.4283 84° East 408 470 25,500 2,160 Climbing Los Angeles Center
05:10PM 36.1925 -114.2533 85° East 425 489 27,600 1,800 Climbing Los Angeles Center
05:11PM 36.2094 -114.1003 82° East 444 511 29,200 1,500 Climbing Los Angeles Center
05:12PM 36.2289 -113.9406 81° East 464 534 30,700 1,380 Climbing Los Angeles Center
05:13PM 36.2483 -113.7767 82° East 478 550 32,100 1,380 Climbing Los Angeles Center
05:14PM 36.2678 -113.6100 82° East 487 560 33,600 1,440 Climbing Los Angeles Center
05:15PM 36.3025 -113.4447 75° East 501 577 35,100 1,620 Climbing Los Angeles Center
05:16PM 36.3736 -113.2622 64° Northeast 492 566 37,000 1,380 Climbing Los Angeles Center
05:17PM 36.4233 -113.1372 64° Northeast 489 563 38,000 960 Climbing Los Angeles Center
05:18PM 36.4953 -112.9572 64° Northeast 487 560 39,000 480 Climbing Los Angeles Center
05:19PM 36.5553 -112.8058 64° Northeast 491 565 39,000  Level Los Angeles Center
05:20PM 36.6258 -112.6256 64° Northeast 486 559 39,000  Level Los Angeles Center
05:21PM 36.6836 -112.4750 64° Northeast 484 557 39,000  Level Los Angeles Center
05:23PM 36.7422 -112.3275 64° Northeast 480 552 39,000  Level Los Angeles Center
05:24PM 36.8122 -112.1494 64° Northeast 479 551 39,000  Level Los Angeles Center
05:25PM 36.8706 -112.0000 64° Northeast 480 552 39,000  Level Los Angeles Center
05:26PM 36.9281 -111.8497 64° Northeast 482 555 39,000  Level Los Angeles Center
05:27PM 36.9853 -111.7006 64° Northeast 480 552 39,000  Level Los Angeles Center
05:28PM 37.0422 -111.5525 64° Northeast 476 548 39,000  Level Los Angeles Center
05:29PM 37.1100 -111.3736 65° Northeast 477 549 39,000  Level Los Angeles Center
05:30PM 37.1661 -111.2256 65° Northeast 473 544 39,000  Level Los Angeles Center
05:31PM 37.2328 -111.0450 65° Northeast 478 550 39,000  Level Denver Center
05:32PM 37.2881 -110.8939 65° Northeast 478 550 39,000  Level Denver Center
05:33PM 37.3447 -110.7419 65° Northeast 482 555 39,000  Level Denver Center
05:34PM 37.4128 -110.5592 65° Northeast 484 557 39,000  Level Denver Center
05:35PM 37.4681 -110.4061 65° Northeast 483 556 39,000  Level Denver Center
05:36PM 37.5219 -110.2611 65° Northeast 485 558 39,000  Level Denver Center
05:37PM 37.5836 -110.0889 66° East 483 556 39,000  Level Denver Center
05:38PM 37.6378 -109.9406 65° Northeast 485 558 39,000  Level Denver Center
05:39PM 37.7000 -109.7681 65° Northeast 484 557 39,000  Level Denver Center
05:40PM 37.7533 -109.6189 66° East 486 559 39,000  Level Denver Center
05:41PM 37.8144 -109.4461 66° East 482 555 39,000  Level Denver Center
05:42PM 37.8661 -109.2986 66° East 480 552 39,000  Level Denver Center
05:43PM 37.9314 -109.1311 64° Northeast 476 548 39,000  Level Denver Center
05:44PM 37.9931 -108.9881 61° Northeast 480 552 39,000  Level Denver Center
05:45PM 38.0597 -108.8275 62° Northeast 485 558 39,000  Level Denver Center
05:47PM 38.1194 -108.6828 62° Northeast 486 559 39,000  Level Denver Center
05:48PM 38.1883 -108.5197 62° Northeast 474 545 39,000  Level Denver Center
05:49PM 38.2478 -108.3767 62° Northeast 475 547 39,000  Level Denver Center
05:50PM 38.3169 -108.2133 62° Northeast 471 542 39,000  Level Denver Center
05:51PM 38.3761 -108.0686 62° Northeast 478 550 39,000  Level Denver Center
05:52PM 38.4442 -107.9017 62° Northeast 477 549 39,000 -180 Level Denver Center
05:53PM 38.5025 -107.7567 63° Northeast 480 552 38,700 -780 Descending Denver Center
05:54PM 38.5703 -107.5889 63° Northeast 477 549 37,500 -1,020 Descending Denver Center
05:55PM 38.6319 -107.4414 62° Northeast 487 560 36,600 -900 Descending Denver Center
05:56PM 38.7006 -107.2689 63° Northeast 487 560 35,700 -960 Descending Denver Center
05:57PM 38.7633 -107.1111 63° Northeast 491 565 34,700 -1,020 Descending Denver Center
05:58PM 38.8261 -106.9522 63° Northeast 490 564 33,700 -1,020 Descending Denver Center
05:59PM 38.8836 -106.8072 63° Northeast 463 533 32,700 -900 Descending Denver Center
06:00PM 38.9411 -106.6631 63° Northeast 472 543 31,900 -960 Descending Denver Center
06:01PM 39.0067 -106.4931 64° Northeast 476 548 30,800 -1,080 Descending Denver Center
06:02PM 39.0642 -106.3483 63° Northeast 476 548 29,700 -1,320 Descending Denver Center
06:03PM 39.1275 -106.1822 64° Northeast 466 536 28,100 -1,800 Descending Denver Center
06:04PM 39.1858 -106.0275 64° Northeast 447 514 26,100 -2,040 Descending Denver Center
06:05PM 39.2397 -105.8889 63° Northeast 431 496 24,000 -2,040 Descending Denver Center
06:06PM 39.2914 -105.7533 64° Northeast 419 482 22,000 -1,980 Descending Denver Center
06:07PM 39.3411 -105.6222 64° Northeast 406 467 20,000 -1,680 Descending Denver Center
06:08PM 39.3889 -105.4958 64° Northeast 391 450 18,600 -1,260 Descending Denver Center
06:09PM 39.4014 -105.3639 83° East 350 403 17,400 -1,620 Descending Denver Center
06:10PM 39.4158 -105.2308 82° East 344 396 15,300 -1,680 Descending Denver Center
06:11PM 39.4283 -105.1092 82° East 342 394 14,000 -1,140 Descending Denver Center
06:12PM 39.4189 -104.9872 96° East 314 361 13,000 -1,020 Descending Denver Center
06:13PM 39.4444 -104.8850 72° East 310 357 12,000 -1,020 Descending Denver Center
06:14PM 39.5036 -104.8111 44° Northeast 278 320 11,000 -1,020 Descending Denver Center
06:15PM 39.5708 -104.7700 25° Northeast 266 306 9,900 -1,080 Descending Denver Center
06:16PM 39.6350 -104.7256 28° Northeast 260 299 8,800 -1,020 Descending Denver Center
06:18PM 39.7003 -104.6778 29° Northeast 251 289 7,900 -1,020 Descending Denver Center
06:19PM 39.7586 -104.6619 12° North 212 244 6,800 -1,020 Descending Denver Center
06:20PM 39.8106 -104.6608 North 176 203 5,800 -720 Descending Denver Center
06:21PM 39.8469 -104.6622 358° North 145 167 5,400 -420 Descending Denver Center
06:23PM 39.8500 -104.6667 322° Northwest  Level FlightAware Approximate
06:30PM 39.8617 -104.6732 322° Northwest  Level Estimated
06:31PM 39.8617 -104.6732 322° Northwest  Level Estimated